sensor_id;sensor_type;location;lat;lon;timestamp;P1;durP1;ratioP1;P2;durP2;ratioP2
21089;SDS011;10703;51.020;6.128;2023-07-13T00:01:47;3.90;;;3.43;;
21089;SDS011;10703;51.020;6.128;2023-07-13T00:04:19;9.87;;;4.40;;
21089;SDS011;10703;51.020;6.128;2023-07-13T00:06:49;4.73;;;3.63;;
21089;SDS011;10703;51.020;6.128;2023-07-13T00:09:16;6.33;;;3.50;;
21089;SDS011;10703;51.020;6.128;2023-07-13T00:11:44;5.43;;;3.53;;
21089;SDS011;10703;51.020;6.128;2023-07-13T00:14:13;9.00;;;3.57;;
21089;SDS011;10703;51.020;6.128;2023-07-13T00:16:41;6.23;;;3.87;;
21089;SDS011;10703;51.020;6.128;2023-07-13T00:19:10;5.43;;;3.37;;
21089;SDS011;10703;51.020;6.128;2023-07-13T00:21:38;7.07;;;4.47;;
21089;SDS011;10703;51.020;6.128;2023-07-13T00:24:06;6.13;;;3.43;;
21089;SDS011;10703;51.020;6.128;2023-07-13T00:26:34;9.07;;;3.90;;
21089;SDS011;10703;51.020;6.128;2023-07-13T00:29:00;6.17;;;3.63;;
21089;SDS011;10703;51.020;6.128;2023-07-13T00:31:27;7.07;;;3.77;;
21089;SDS011;10703;51.020;6.128;2023-07-13T00:33:54;4.60;;;3.50;;
21089;SDS011;10703;51.020;6.128;2023-07-13T00:36:20;10.17;;;3.97;;
21089;SDS011;10703;51.020;6.128;2023-07-13T00:38:47;5.27;;;3.53;;
21089;SDS011;10703;51.020;6.128;2023-07-13T00:41:15;7.77;;;3.97;;
21089;SDS011;10703;51.020;6.128;2023-07-13T00:43:41;5.40;;;3.70;;
21089;SDS011;10703;51.020;6.128;2023-07-13T00:46:10;5.00;;;3.60;;
21089;SDS011;10703;51.020;6.128;2023-07-13T00:48:39;6.90;;;3.90;;
21089;SDS011;10703;51.020;6.128;2023-07-13T00:51:06;12.73;;;4.07;;
21089;SDS011;10703;51.020;6.128;2023-07-13T00:53:34;5.40;;;3.67;;
21089;SDS011;10703;51.020;6.128;2023-07-13T00:56:01;5.03;;;3.70;;
21089;SDS011;10703;51.020;6.128;2023-07-13T00:58:29;5.47;;;3.80;;
21089;SDS011;10703;51.020;6.128;2023-07-13T01:00:56;6.17;;;3.70;;
21089;SDS011;10703;51.020;6.128;2023-07-13T01:03:22;9.30;;;4.07;;
21089;SDS011;10703;51.020;6.128;2023-07-13T01:05:49;17.47;;;4.43;;
21089;SDS011;10703;51.020;6.128;2023-07-13T01:08:17;7.40;;;4.03;;
21089;SDS011;10703;51.020;6.128;2023-07-13T01:10:54;8.63;;;4.13;;
21089;SDS011;10703;51.020;6.128;2023-07-13T01:13:22;7.53;;;5.07;;
21089;SDS011;10703;51.020;6.128;2023-07-13T01:15:50;5.40;;;3.70;;
21089;SDS011;10703;51.020;6.128;2023-07-13T01:18:21;12.03;;;3.83;;
21089;SDS011;10703;51.020;6.128;2023-07-13T01:21:01;7.87;;;3.90;;
21089;SDS011;10703;51.020;6.128;2023-07-13T01:23:30;6.37;;;4.17;;
21089;SDS011;10703;51.020;6.128;2023-07-13T01:25:58;4.80;;;3.23;;
21089;SDS011;10703;51.020;6.128;2023-07-13T01:28:25;6.00;;;3.93;;
21089;SDS011;10703;51.020;6.128;2023-07-13T01:30:54;7.83;;;3.53;;
21089;SDS011;10703;51.020;6.128;2023-07-13T01:33:22;7.80;;;3.97;;
21089;SDS011;10703;51.020;6.128;2023-07-13T01:35:49;5.63;;;3.70;;
21089;SDS011;10703;51.020;6.128;2023-07-13T01:38:18;7.93;;;4.30;;
21089;SDS011;10703;51.020;6.128;2023-07-13T01:40:46;6.53;;;3.87;;
21089;SDS011;10703;51.020;6.128;2023-07-13T01:43:13;5.13;;;3.60;;
21089;SDS011;10703;51.020;6.128;2023-07-13T01:45:40;10.87;;;4.47;;
21089;SDS011;10703;51.020;6.128;2023-07-13T01:48:09;7.73;;;3.87;;
21089;SDS011;10703;51.020;6.128;2023-07-13T01:50:36;6.80;;;4.00;;
21089;SDS011;10703;51.020;6.128;2023-07-13T01:53:04;4.47;;;3.77;;
21089;SDS011;10703;51.020;6.128;2023-07-13T01:55:31;4.13;;;3.67;;
21089;SDS011;10703;51.020;6.128;2023-07-13T01:57:59;11.10;;;3.87;;
21089;SDS011;10703;51.020;6.128;2023-07-13T02:00:26;10.17;;;3.80;;
21089;SDS011;10703;51.020;6.128;2023-07-13T02:02:52;8.80;;;3.50;;
21089;SDS011;10703;51.020;6.128;2023-07-13T02:05:19;6.70;;;3.70;;
21089;SDS011;10703;51.020;6.128;2023-07-13T02:07:46;5.97;;;3.90;;
21089;SDS011;10703;51.020;6.128;2023-07-13T02:10:13;11.07;;;3.50;;
21089;SDS011;10703;51.020;6.128;2023-07-13T02:12:40;13.27;;;4.07;;
21089;SDS011;10703;51.020;6.128;2023-07-13T02:15:08;9.70;;;4.23;;
21089;SDS011;10703;51.020;6.128;2023-07-13T02:17:35;9.33;;;3.90;;
21089;SDS011;10703;51.020;6.128;2023-07-13T02:20:03;7.70;;;4.23;;
21089;SDS011;10703;51.020;6.128;2023-07-13T02:22:30;6.93;;;3.50;;
21089;SDS011;10703;51.020;6.128;2023-07-13T02:24:57;4.80;;;3.80;;
21089;SDS011;10703;51.020;6.128;2023-07-13T02:27:24;5.63;;;4.23;;
21089;SDS011;10703;51.020;6.128;2023-07-13T02:29:51;4.97;;;4.13;;
21089;SDS011;10703;51.020;6.128;2023-07-13T02:32:18;5.37;;;3.83;;
21089;SDS011;10703;51.020;6.128;2023-07-13T02:34:45;7.50;;;4.20;;
21089;SDS011;10703;51.020;6.128;2023-07-13T02:37:11;9.27;;;4.33;;
21089;SDS011;10703;51.020;6.128;2023-07-13T02:39:38;6.30;;;4.43;;
21089;SDS011;10703;51.020;6.128;2023-07-13T02:42:05;8.37;;;4.50;;
21089;SDS011;10703;51.020;6.128;2023-07-13T02:44:32;7.17;;;4.27;;
21089;SDS011;10703;51.020;6.128;2023-07-13T02:46:58;10.77;;;4.37;;
21089;SDS011;10703;51.020;6.128;2023-07-13T02:49:25;5.77;;;4.30;;
21089;SDS011;10703;51.020;6.128;2023-07-13T02:51:52;6.93;;;4.40;;
21089;SDS011;10703;51.020;6.128;2023-07-13T02:54:18;7.20;;;4.47;;
21089;SDS011;10703;51.020;6.128;2023-07-13T02:56:45;10.47;;;4.60;;
21089;SDS011;10703;51.020;6.128;2023-07-13T02:59:12;6.43;;;4.37;;
21089;SDS011;10703;51.020;6.128;2023-07-13T03:01:38;11.57;;;4.80;;
21089;SDS011;10703;51.020;6.128;2023-07-13T03:04:06;10.17;;;5.17;;
21089;SDS011;10703;51.020;6.128;2023-07-13T03:06:33;6.57;;;4.20;;
21089;SDS011;10703;51.020;6.128;2023-07-13T03:08:59;12.73;;;4.20;;
21089;SDS011;10703;51.020;6.128;2023-07-13T03:11:26;8.07;;;4.07;;
21089;SDS011;10703;51.020;6.128;2023-07-13T03:13:53;5.00;;;4.27;;
21089;SDS011;10703;51.020;6.128;2023-07-13T03:16:21;11.80;;;4.30;;
21089;SDS011;10703;51.020;6.128;2023-07-13T03:18:47;10.87;;;4.40;;
21089;SDS011;10703;51.020;6.128;2023-07-13T03:21:14;9.70;;;4.23;;
21089;SDS011;10703;51.020;6.128;2023-07-13T03:23:41;9.10;;;4.43;;
21089;SDS011;10703;51.020;6.128;2023-07-13T03:26:11;8.07;;;4.57;;
21089;SDS011;10703;51.020;6.128;2023-07-13T03:28:40;7.40;;;4.50;;
21089;SDS011;10703;51.020;6.128;2023-07-13T03:31:09;6.30;;;4.00;;
21089;SDS011;10703;51.020;6.128;2023-07-13T03:33:37;9.50;;;4.47;;
21089;SDS011;10703;51.020;6.128;2023-07-13T03:36:05;9.57;;;4.30;;
21089;SDS011;10703;51.020;6.128;2023-07-13T03:38:32;7.10;;;4.63;;
21089;SDS011;10703;51.020;6.128;2023-07-13T03:40:59;6.67;;;4.33;;
21089;SDS011;10703;51.020;6.128;2023-07-13T03:43:26;6.70;;;4.33;;
21089;SDS011;10703;51.020;6.128;2023-07-13T03:45:52;7.47;;;4.70;;
21089;SDS011;10703;51.020;6.128;2023-07-13T03:48:19;8.97;;;4.50;;
21089;SDS011;10703;51.020;6.128;2023-07-13T03:50:46;6.43;;;4.43;;
21089;SDS011;10703;51.020;6.128;2023-07-13T03:53:13;5.70;;;4.07;;
21089;SDS011;10703;51.020;6.128;2023-07-13T03:55:40;7.10;;;4.40;;
21089;SDS011;10703;51.020;6.128;2023-07-13T03:58:23;7.73;;;5.03;;
21089;SDS011;10703;51.020;6.128;2023-07-13T04:00:57;9.53;;;4.40;;
21089;SDS011;10703;51.020;6.128;2023-07-13T04:03:26;8.20;;;4.70;;
21089;SDS011;10703;51.020;6.128;2023-07-13T04:05:55;8.70;;;4.03;;
21089;SDS011;10703;51.020;6.128;2023-07-13T04:08:29;9.70;;;4.87;;
21089;SDS011;10703;51.020;6.128;2023-07-13T04:11:00;8.80;;;4.70;;
21089;SDS011;10703;51.020;6.128;2023-07-13T04:13:27;7.67;;;4.60;;
21089;SDS011;10703;51.020;6.128;2023-07-13T04:15:54;15.37;;;5.20;;
21089;SDS011;10703;51.020;6.128;2023-07-13T04:18:21;8.47;;;4.60;;
21089;SDS011;10703;51.020;6.128;2023-07-13T04:20:48;11.73;;;4.63;;
21089;SDS011;10703;51.020;6.128;2023-07-13T04:23:16;7.23;;;4.23;;
21089;SDS011;10703;51.020;6.128;2023-07-13T04:25:44;8.97;;;4.63;;
21089;SDS011;10703;51.020;6.128;2023-07-13T04:28:12;6.37;;;4.40;;
21089;SDS011;10703;51.020;6.128;2023-07-13T04:30:38;8.53;;;4.27;;
21089;SDS011;10703;51.020;6.128;2023-07-13T04:33:05;8.90;;;4.27;;
21089;SDS011;10703;51.020;6.128;2023-07-13T04:35:32;9.93;;;4.50;;
21089;SDS011;10703;51.020;6.128;2023-07-13T04:37:58;10.23;;;4.40;;
21089;SDS011;10703;51.020;6.128;2023-07-13T04:40:25;5.47;;;4.53;;
21089;SDS011;10703;51.020;6.128;2023-07-13T04:42:53;9.40;;;4.53;;
21089;SDS011;10703;51.020;6.128;2023-07-13T04:45:20;11.70;;;4.33;;
21089;SDS011;10703;51.020;6.128;2023-07-13T04:47:47;9.70;;;4.83;;
21089;SDS011;10703;51.020;6.128;2023-07-13T04:50:13;6.53;;;4.30;;
21089;SDS011;10703;51.020;6.128;2023-07-13T04:52:44;7.40;;;4.30;;
21089;SDS011;10703;51.020;6.128;2023-07-13T04:55:11;6.37;;;4.53;;
21089;SDS011;10703;51.020;6.128;2023-07-13T04:57:38;9.10;;;4.37;;
21089;SDS011;10703;51.020;6.128;2023-07-13T05:00:04;4.77;;;4.00;;
21089;SDS011;10703;51.020;6.128;2023-07-13T05:02:33;8.53;;;4.20;;
21089;SDS011;10703;51.020;6.128;2023-07-13T05:05:01;7.33;;;4.30;;
21089;SDS011;10703;51.020;6.128;2023-07-13T05:07:30;4.90;;;3.90;;
21089;SDS011;10703;51.020;6.128;2023-07-13T05:09:59;11.33;;;4.97;;
21089;SDS011;10703;51.020;6.128;2023-07-13T05:12:26;5.97;;;4.50;;
21089;SDS011;10703;51.020;6.128;2023-07-13T05:14:53;7.73;;;4.20;;
21089;SDS011;10703;51.020;6.128;2023-07-13T05:17:19;11.23;;;4.90;;
21089;SDS011;10703;51.020;6.128;2023-07-13T05:19:46;7.10;;;3.93;;
21089;SDS011;10703;51.020;6.128;2023-07-13T05:22:13;7.03;;;4.33;;
21089;SDS011;10703;51.020;6.128;2023-07-13T05:24:40;8.67;;;4.30;;
21089;SDS011;10703;51.020;6.128;2023-07-13T05:27:06;12.03;;;4.57;;
21089;SDS011;10703;51.020;6.128;2023-07-13T05:29:33;7.13;;;4.40;;
21089;SDS011;10703;51.020;6.128;2023-07-13T05:32:00;7.73;;;4.00;;
21089;SDS011;10703;51.020;6.128;2023-07-13T05:34:27;6.20;;;4.70;;
21089;SDS011;10703;51.020;6.128;2023-07-13T05:36:53;10.23;;;4.60;;
21089;SDS011;10703;51.020;6.128;2023-07-13T05:39:20;10.43;;;4.10;;
21089;SDS011;10703;51.020;6.128;2023-07-13T05:41:47;10.53;;;4.30;;
21089;SDS011;10703;51.020;6.128;2023-07-13T05:44:14;11.10;;;4.80;;
21089;SDS011;10703;51.020;6.128;2023-07-13T05:46:40;6.53;;;4.40;;
21089;SDS011;10703;51.020;6.128;2023-07-13T05:49:07;7.20;;;4.00;;
21089;SDS011;10703;51.020;6.128;2023-07-13T05:51:34;6.83;;;4.70;;
21089;SDS011;10703;51.020;6.128;2023-07-13T05:54:00;12.53;;;4.80;;
21089;SDS011;10703;51.020;6.128;2023-07-13T05:56:27;5.10;;;4.40;;
21089;SDS011;10703;51.020;6.128;2023-07-13T05:58:54;6.27;;;4.47;;
21089;SDS011;10703;51.020;6.128;2023-07-13T06:01:20;6.90;;;4.03;;
21089;SDS011;10703;51.020;6.128;2023-07-13T06:03:48;7.80;;;4.13;;
21089;SDS011;10703;51.020;6.128;2023-07-13T06:06:16;7.57;;;4.37;;
21089;SDS011;10703;51.020;6.128;2023-07-13T06:08:43;4.60;;;4.13;;
21089;SDS011;10703;51.020;6.128;2023-07-13T06:11:12;6.93;;;4.50;;
21089;SDS011;10703;51.020;6.128;2023-07-13T06:13:42;12.53;;;4.47;;
21089;SDS011;10703;51.020;6.128;2023-07-13T06:16:09;11.57;;;4.53;;
21089;SDS011;10703;51.020;6.128;2023-07-13T06:18:36;6.87;;;4.63;;
21089;SDS011;10703;51.020;6.128;2023-07-13T06:21:10;7.00;;;4.67;;
21089;SDS011;10703;51.020;6.128;2023-07-13T06:23:39;9.70;;;4.10;;
21089;SDS011;10703;51.020;6.128;2023-07-13T06:26:06;7.87;;;4.40;;
21089;SDS011;10703;51.020;6.128;2023-07-13T06:28:33;13.57;;;4.93;;
21089;SDS011;10703;51.020;6.128;2023-07-13T06:31:01;9.00;;;4.60;;
21089;SDS011;10703;51.020;6.128;2023-07-13T06:33:28;8.67;;;4.40;;
21089;SDS011;10703;51.020;6.128;2023-07-13T06:35:55;9.00;;;4.53;;
21089;SDS011;10703;51.020;6.128;2023-07-13T06:38:21;7.33;;;4.30;;
21089;SDS011;10703;51.020;6.128;2023-07-13T06:40:48;10.30;;;4.63;;
21089;SDS011;10703;51.020;6.128;2023-07-13T06:43:15;6.63;;;4.30;;
21089;SDS011;10703;51.020;6.128;2023-07-13T06:45:43;8.57;;;4.80;;
21089;SDS011;10703;51.020;6.128;2023-07-13T06:48:16;10.17;;;4.57;;
21089;SDS011;10703;51.020;6.128;2023-07-13T06:50:43;12.20;;;5.10;;
21089;SDS011;10703;51.020;6.128;2023-07-13T06:53:11;13.27;;;4.83;;
21089;SDS011;10703;51.020;6.128;2023-07-13T06:55:39;12.37;;;5.10;;
21089;SDS011;10703;51.020;6.128;2023-07-13T06:58:06;10.47;;;4.87;;
21089;SDS011;10703;51.020;6.128;2023-07-13T07:00:33;12.10;;;5.27;;
21089;SDS011;10703;51.020;6.128;2023-07-13T07:02:59;7.43;;;4.80;;
21089;SDS011;10703;51.020;6.128;2023-07-13T07:05:26;14.73;;;5.33;;
21089;SDS011;10703;51.020;6.128;2023-07-13T07:07:53;13.57;;;5.50;;
21089;SDS011;10703;51.020;6.128;2023-07-13T07:10:21;12.80;;;5.77;;
21089;SDS011;10703;51.020;6.128;2023-07-13T07:12:48;9.00;;;5.10;;
21089;SDS011;10703;51.020;6.128;2023-07-13T07:15:15;12.37;;;5.23;;
21089;SDS011;10703;51.020;6.128;2023-07-13T07:17:46;11.90;;;5.47;;
21089;SDS011;10703;51.020;6.128;2023-07-13T07:20:13;11.47;;;5.37;;
21089;SDS011;10703;51.020;6.128;2023-07-13T07:22:40;12.90;;;5.53;;
21089;SDS011;10703;51.020;6.128;2023-07-13T07:25:06;12.87;;;5.33;;
21089;SDS011;10703;51.020;6.128;2023-07-13T07:27:33;7.53;;;5.23;;
21089;SDS011;10703;51.020;6.128;2023-07-13T07:30:03;15.57;;;5.50;;
21089;SDS011;10703;51.020;6.128;2023-07-13T07:32:33;9.03;;;4.97;;
21089;SDS011;10703;51.020;6.128;2023-07-13T07:35:03;10.17;;;5.27;;
21089;SDS011;10703;51.020;6.128;2023-07-13T07:37:30;13.87;;;5.60;;
21089;SDS011;10703;51.020;6.128;2023-07-13T07:40:00;9.77;;;4.77;;
21089;SDS011;10703;51.020;6.128;2023-07-13T07:42:29;10.40;;;5.03;;
21089;SDS011;10703;51.020;6.128;2023-07-13T07:44:56;9.43;;;4.87;;
21089;SDS011;10703;51.020;6.128;2023-07-13T07:47:23;7.23;;;4.50;;
21089;SDS011;10703;51.020;6.128;2023-07-13T07:49:50;13.87;;;5.13;;
21089;SDS011;10703;51.020;6.128;2023-07-13T07:52:17;10.80;;;5.10;;
21089;SDS011;10703;51.020;6.128;2023-07-13T07:54:43;6.13;;;4.53;;
21089;SDS011;10703;51.020;6.128;2023-07-13T07:57:13;11.70;;;5.40;;
21089;SDS011;10703;51.020;6.128;2023-07-13T07:59:43;11.70;;;5.30;;
21089;SDS011;10703;51.020;6.128;2023-07-13T08:02:12;7.07;;;4.70;;
21089;SDS011;10703;51.020;6.128;2023-07-13T08:04:59;9.20;;;4.73;;
21089;SDS011;10703;51.020;6.128;2023-07-13T08:07:30;7.43;;;4.80;;
21089;SDS011;10703;51.020;6.128;2023-07-13T08:09:57;5.37;;;4.00;;
21089;SDS011;10703;51.020;6.128;2023-07-13T08:12:24;8.27;;;4.60;;
21089;SDS011;10703;51.020;6.128;2023-07-13T08:14:53;5.67;;;3.40;;
21089;SDS011;10703;51.020;6.128;2023-07-13T08:17:24;6.03;;;4.13;;
21089;SDS011;10703;51.020;6.128;2023-07-13T08:19:51;6.30;;;3.80;;
21089;SDS011;10703;51.020;6.128;2023-07-13T08:22:18;6.60;;;4.13;;
21089;SDS011;10703;51.020;6.128;2023-07-13T08:24:44;8.60;;;4.00;;
21089;SDS011;10703;51.020;6.128;2023-07-13T08:27:11;8.20;;;4.53;;
21089;SDS011;10703;51.020;6.128;2023-07-13T08:29:38;4.13;;;3.73;;
21089;SDS011;10703;51.020;6.128;2023-07-13T08:32:06;8.03;;;3.90;;
21089;SDS011;10703;51.020;6.128;2023-07-13T08:34:37;8.70;;;3.87;;
21089;SDS011;10703;51.020;6.128;2023-07-13T08:37:03;7.73;;;4.23;;
21089;SDS011;10703;51.020;6.128;2023-07-13T08:39:31;6.30;;;3.90;;
21089;SDS011;10703;51.020;6.128;2023-07-13T08:42:03;7.17;;;4.00;;
21089;SDS011;10703;51.020;6.128;2023-07-13T08:47:26;7.57;;;4.20;;
21089;SDS011;10703;51.020;6.128;2023-07-13T08:49:57;5.67;;;4.13;;
21089;SDS011;10703;51.020;6.128;2023-07-13T08:55:03;8.80;;;4.30;;
21089;SDS011;10703;51.020;6.128;2023-07-13T08:57:37;5.93;;;3.97;;
21089;SDS011;10703;51.020;6.128;2023-07-13T09:00:09;8.50;;;4.30;;
21089;SDS011;10703;51.020;6.128;2023-07-13T09:05:18;7.57;;;4.50;;
21089;SDS011;10703;51.020;6.128;2023-07-13T09:11:00;8.88;;;3.88;;
21089;SDS011;10703;51.020;6.128;2023-07-13T09:13:46;7.53;;;3.57;;
21089;SDS011;10703;51.020;6.128;2023-07-13T09:16:21;9.02;;;3.72;;
21089;SDS011;10703;51.020;6.128;2023-07-13T09:18:49;4.50;;;3.40;;
21089;SDS011;10703;51.020;6.128;2023-07-13T09:21:23;5.78;;;3.45;;
21089;SDS011;10703;51.020;6.128;2023-07-13T09:23:53;9.63;;;4.00;;
21089;SDS011;10703;51.020;6.128;2023-07-13T09:26:25;7.20;;;3.93;;
21089;SDS011;10703;51.020;6.128;2023-07-13T09:28:57;6.65;;;3.83;;
21089;SDS011;10703;51.020;6.128;2023-07-13T09:31:32;6.77;;;4.03;;
21089;SDS011;10703;51.020;6.128;2023-07-13T09:34:04;5.22;;;3.65;;
21089;SDS011;10703;51.020;6.128;2023-07-13T09:36:38;10.35;;;3.42;;
21089;SDS011;10703;51.020;6.128;2023-07-13T09:39:10;7.03;;;3.53;;
21089;SDS011;10703;51.020;6.128;2023-07-13T09:47:26;7.45;;;3.42;;
21089;SDS011;10703;51.020;6.128;2023-07-13T09:49:55;5.75;;;3.92;;
21089;SDS011;10703;51.020;6.128;2023-07-13T09:52:39;5.97;;;3.67;;
21089;SDS011;10703;51.020;6.128;2023-07-13T09:55:24;7.57;;;3.58;;
21089;SDS011;10703;51.020;6.128;2023-07-13T09:57:53;4.95;;;3.80;;
21089;SDS011;10703;51.020;6.128;2023-07-13T10:00:26;6.38;;;3.67;;
21089;SDS011;10703;51.020;6.128;2023-07-13T10:03:05;7.93;;;3.88;;
21089;SDS011;10703;51.020;6.128;2023-07-13T10:05:39;5.75;;;3.50;;
21089;SDS011;10703;51.020;6.128;2023-07-13T10:10:52;7.60;;;3.40;;
21089;SDS011;10703;51.020;6.128;2023-07-13T10:13:25;9.35;;;3.70;;
21089;SDS011;10703;51.020;6.128;2023-07-13T10:15:53;7.22;;;3.35;;
21089;SDS011;10703;51.020;6.128;2023-07-13T10:18:22;6.72;;;3.30;;
21089;SDS011;10703;51.020;6.128;2023-07-13T10:20:54;4.05;;;3.20;;
21089;SDS011;10703;51.020;6.128;2023-07-13T10:23:56;7.80;;;3.45;;
21089;SDS011;10703;51.020;6.128;2023-07-13T10:26:32;6.88;;;3.28;;
21089;SDS011;10703;51.020;6.128;2023-07-13T10:29:02;4.78;;;2.90;;
21089;SDS011;10703;51.020;6.128;2023-07-13T10:31:34;6.97;;;3.47;;
21089;SDS011;10703;51.020;6.128;2023-07-13T10:34:02;7.28;;;3.10;;
21089;SDS011;10703;51.020;6.128;2023-07-13T10:39:06;6.55;;;3.15;;
21089;SDS011;10703;51.020;6.128;2023-07-13T10:41:40;6.65;;;3.35;;
21089;SDS011;10703;51.020;6.128;2023-07-13T10:44:17;5.32;;;3.20;;
21089;SDS011;10703;51.020;6.128;2023-07-13T10:46:59;4.55;;;3.08;;
21089;SDS011;10703;51.020;6.128;2023-07-13T10:49:36;4.40;;;2.80;;
21089;SDS011;10703;51.020;6.128;2023-07-13T10:52:05;3.95;;;3.13;;
21089;SDS011;10703;51.020;6.128;2023-07-13T10:54:32;3.88;;;3.05;;
21089;SDS011;10703;51.020;6.128;2023-07-13T10:57:19;5.65;;;3.30;;
21089;SDS011;10703;51.020;6.128;2023-07-13T11:00:13;7.63;;;3.63;;
21089;SDS011;10703;51.020;6.128;2023-07-13T11:02:42;6.38;;;3.33;;
21089;SDS011;10703;51.020;6.128;2023-07-13T11:16:13;8.93;;;3.80;;
21089;SDS011;10703;51.020;6.128;2023-07-13T11:21:28;4.78;;;2.85;;
21089;SDS011;10703;51.020;6.128;2023-07-13T11:24:04;6.07;;;3.10;;
21089;SDS011;10703;51.020;6.128;2023-07-13T11:31:55;3.78;;;3.08;;
21089;SDS011;10703;51.020;6.128;2023-07-13T11:34:27;8.05;;;3.40;;
21089;SDS011;10703;51.020;6.128;2023-07-13T11:36:57;4.10;;;2.78;;
21089;SDS011;10703;51.020;6.128;2023-07-13T11:39:35;6.05;;;2.97;;
21089;SDS011;10703;51.020;6.128;2023-07-13T11:42:13;4.95;;;2.55;;
21089;SDS011;10703;51.020;6.128;2023-07-13T11:44:43;5.57;;;2.63;;
21089;SDS011;10703;51.020;6.128;2023-07-13T11:47:33;6.22;;;3.10;;
21089;SDS011;10703;51.020;6.128;2023-07-13T11:50:00;3.58;;;2.50;;
21089;SDS011;10703;51.020;6.128;2023-07-13T11:52:29;4.22;;;2.60;;
21089;SDS011;10703;51.020;6.128;2023-07-13T11:55:00;3.55;;;2.38;;
21089;SDS011;10703;51.020;6.128;2023-07-13T11:57:29;8.15;;;2.40;;
21089;SDS011;10703;51.020;6.128;2023-07-13T12:00:13;2.80;;;2.08;;
21089;SDS011;10703;51.020;6.128;2023-07-13T12:02:43;3.28;;;2.47;;
21089;SDS011;10703;51.020;6.128;2023-07-13T12:05:15;3.28;;;2.83;;
21089;SDS011;10703;51.020;6.128;2023-07-13T12:07:44;7.45;;;2.60;;
21089;SDS011;10703;51.020;6.128;2023-07-13T12:10:17;5.80;;;2.97;;
21089;SDS011;10703;51.020;6.128;2023-07-13T12:12:50;4.65;;;2.80;;
21089;SDS011;10703;51.020;6.128;2023-07-13T12:15:26;2.88;;;2.38;;
21089;SDS011;10703;51.020;6.128;2023-07-13T12:18:00;4.22;;;2.50;;
21089;SDS011;10703;51.020;6.128;2023-07-13T12:20:27;3.03;;;2.63;;
21089;SDS011;10703;51.020;6.128;2023-07-13T12:23:01;5.13;;;2.53;;
21089;SDS011;10703;51.020;6.128;2023-07-13T12:25:34;4.80;;;2.60;;
21089;SDS011;10703;51.020;6.128;2023-07-13T12:28:01;3.30;;;2.42;;
21089;SDS011;10703;51.020;6.128;2023-07-13T12:31:00;4.50;;;2.97;;
21089;SDS011;10703;51.020;6.128;2023-07-13T12:33:30;5.15;;;2.90;;
21089;SDS011;10703;51.020;6.128;2023-07-13T12:36:02;4.70;;;2.60;;
21089;SDS011;10703;51.020;6.128;2023-07-13T12:38:31;2.58;;;2.38;;
21089;SDS011;10703;51.020;6.128;2023-07-13T12:40:58;4.22;;;2.67;;
21089;SDS011;10703;51.020;6.128;2023-07-13T12:43:30;3.65;;;2.47;;
21089;SDS011;10703;51.020;6.128;2023-07-13T12:46:25;3.85;;;2.80;;
21089;SDS011;10703;51.020;6.128;2023-07-13T12:48:51;6.13;;;2.88;;
21089;SDS011;10703;51.020;6.128;2023-07-13T12:51:33;2.85;;;2.22;;
21089;SDS011;10703;51.020;6.128;2023-07-13T12:54:11;6.05;;;2.75;;
21089;SDS011;10703;51.020;6.128;2023-07-13T12:56:41;5.57;;;2.65;;
21089;SDS011;10703;51.020;6.128;2023-07-13T12:59:10;3.85;;;2.60;;
21089;SDS011;10703;51.020;6.128;2023-07-13T13:01:46;4.10;;;2.40;;
21089;SDS011;10703;51.020;6.128;2023-07-13T13:04:15;3.03;;;2.45;;
21089;SDS011;10703;51.020;6.128;2023-07-13T13:06:47;3.08;;;2.33;;
21089;SDS011;10703;51.020;6.128;2023-07-13T13:09:16;5.07;;;2.65;;
21089;SDS011;10703;51.020;6.128;2023-07-13T13:11:44;4.50;;;2.40;;
21089;SDS011;10703;51.020;6.128;2023-07-13T13:14:11;9.40;;;2.72;;
21089;SDS011;10703;51.020;6.128;2023-07-13T13:16:48;3.17;;;2.50;;
21089;SDS011;10703;51.020;6.128;2023-07-13T13:19:19;4.32;;;2.78;;
21089;SDS011;10703;51.020;6.128;2023-07-13T13:21:49;5.00;;;2.90;;
21089;SDS011;10703;51.020;6.128;2023-07-13T13:24:19;5.13;;;2.40;;
21089;SDS011;10703;51.020;6.128;2023-07-13T13:26:48;5.95;;;2.83;;
21089;SDS011;10703;51.020;6.128;2023-07-13T13:29:18;4.10;;;2.60;;
21089;SDS011;10703;51.020;6.128;2023-07-13T13:31:47;3.30;;;2.70;;
21089;SDS011;10703;51.020;6.128;2023-07-13T13:34:15;5.90;;;2.45;;
21089;SDS011;10703;51.020;6.128;2023-07-13T13:36:43;5.43;;;2.45;;
21089;SDS011;10703;51.020;6.128;2023-07-13T13:39:24;3.17;;;2.40;;
21089;SDS011;10703;51.020;6.128;2023-07-13T13:41:54;6.15;;;2.58;;
21089;SDS011;10703;51.020;6.128;2023-07-13T13:44:21;4.43;;;2.40;;
21089;SDS011;10703;51.020;6.128;2023-07-13T13:46:51;5.90;;;2.85;;
21089;SDS011;10703;51.020;6.128;2023-07-13T13:49:21;3.47;;;2.42;;
21089;SDS011;10703;51.020;6.128;2023-07-13T13:51:50;3.15;;;2.40;;
21089;SDS011;10703;51.020;6.128;2023-07-13T13:54:18;4.70;;;2.50;;
21089;SDS011;10703;51.020;6.128;2023-07-13T13:56:47;2.63;;;2.30;;
21089;SDS011;10703;51.020;6.128;2023-07-13T13:59:15;3.63;;;2.55;;
21089;SDS011;10703;51.020;6.128;2023-07-13T14:01:43;4.78;;;2.80;;
21089;SDS011;10703;51.020;6.128;2023-07-13T14:04:15;4.03;;;2.40;;
21089;SDS011;10703;51.020;6.128;2023-07-13T14:06:44;3.33;;;2.40;;
21089;SDS011;10703;51.020;6.128;2023-07-13T14:09:11;7.93;;;2.95;;
21089;SDS011;10703;51.020;6.128;2023-07-13T14:11:41;6.80;;;2.88;;
21089;SDS011;10703;51.020;6.128;2023-07-13T14:14:19;3.17;;;2.70;;
21089;SDS011;10703;51.020;6.128;2023-07-13T14:16:49;2.60;;;2.40;;
21089;SDS011;10703;51.020;6.128;2023-07-13T14:19:21;3.72;;;2.65;;
21089;SDS011;10703;51.020;6.128;2023-07-13T14:21:48;3.90;;;2.80;;
21089;SDS011;10703;51.020;6.128;2023-07-13T14:24:15;5.35;;;2.85;;
21089;SDS011;10703;51.020;6.128;2023-07-13T14:26:42;6.93;;;2.90;;
21089;SDS011;10703;51.020;6.128;2023-07-13T14:29:13;3.45;;;2.70;;
21089;SDS011;10703;51.020;6.128;2023-07-13T14:31:43;5.18;;;2.67;;
21089;SDS011;10703;51.020;6.128;2023-07-13T14:34:11;4.25;;;2.75;;
21089;SDS011;10703;51.020;6.128;2023-07-13T14:36:43;7.38;;;2.90;;
21089;SDS011;10703;51.020;6.128;2023-07-13T14:39:13;5.35;;;2.90;;
21089;SDS011;10703;51.020;6.128;2023-07-13T14:41:43;4.88;;;3.13;;
21089;SDS011;10703;51.020;6.128;2023-07-13T14:44:14;5.57;;;2.97;;
21089;SDS011;10703;51.020;6.128;2023-07-13T14:46:42;4.63;;;3.00;;
21089;SDS011;10703;51.020;6.128;2023-07-13T14:49:15;3.70;;;2.93;;
21089;SDS011;10703;51.020;6.128;2023-07-13T14:51:56;3.08;;;2.85;;
21089;SDS011;10703;51.020;6.128;2023-07-13T14:54:25;3.97;;;2.93;;
21089;SDS011;10703;51.020;6.128;2023-07-13T14:56:52;3.00;;;2.70;;
21089;SDS011;10703;51.020;6.128;2023-07-13T14:59:19;3.63;;;2.90;;
21089;SDS011;10703;51.020;6.128;2023-07-13T15:01:46;4.73;;;2.83;;
21089;SDS011;10703;51.020;6.128;2023-07-13T15:04:15;6.40;;;3.40;;
21089;SDS011;10703;51.020;6.128;2023-07-13T15:09:25;3.33;;;2.97;;
21089;SDS011;10703;51.020;6.128;2023-07-13T15:11:55;4.73;;;3.03;;
21089;SDS011;10703;51.020;6.128;2023-07-13T15:14:23;3.50;;;3.20;;
21089;SDS011;10703;51.020;6.128;2023-07-13T15:16:51;4.57;;;3.57;;
21089;SDS011;10703;51.020;6.128;2023-07-13T15:19:20;3.73;;;3.30;;
21089;SDS011;10703;51.020;6.128;2023-07-13T15:21:47;5.73;;;3.43;;
21089;SDS011;10703;51.020;6.128;2023-07-13T15:24:14;4.53;;;3.50;;
21089;SDS011;10703;51.020;6.128;2023-07-13T15:26:42;4.90;;;3.33;;
21089;SDS011;10703;51.020;6.128;2023-07-13T15:29:15;6.63;;;3.90;;
21089;SDS011;10703;51.020;6.128;2023-07-13T15:31:42;10.40;;;3.30;;
21089;SDS011;10703;51.020;6.128;2023-07-13T15:34:10;4.20;;;3.60;;
21089;SDS011;10703;51.020;6.128;2023-07-13T15:36:39;7.60;;;3.60;;
21089;SDS011;10703;51.020;6.128;2023-07-13T15:39:06;5.20;;;3.67;;
21089;SDS011;10703;51.020;6.128;2023-07-13T15:41:33;3.73;;;3.13;;
21089;SDS011;10703;51.020;6.128;2023-07-13T15:44:00;3.33;;;3.03;;